createdAt,value
2019-02-28T00:00:07.323Z,59.97
2019-02-28T00:02:39.898Z,60.17
2019-02-28T00:05:11.389Z,60.34
2019-02-28T00:07:42.473Z,60.27
2019-02-28T00:10:15.198Z,59.05
2019-02-28T00:12:48.043Z,58.10
2019-02-28T00:15:19.517Z,58.76
2019-02-28T00:17:50.290Z,58.24
2019-02-28T00:20:22.552Z,59.32
2019-02-28T00:22:55.451Z,59.10
2019-02-28T00:25:27.584Z,58.32
2019-02-28T00:27:59.010Z,57.53
2019-02-28T00:30:29.871Z,59.18
2019-02-28T00:33:01.109Z,58.80
2019-02-28T00:35:34.478Z,60.39
2019-02-28T00:38:06.052Z,61.20
2019-02-28T00:40:38.698Z,60.29
2019-02-28T00:43:11.572Z,60.84
2019-02-28T00:45:43.139Z,61.19
2019-02-28T00:48:18.205Z,61.13
2019-02-28T00:50:50.159Z,61.21
2019-02-28T00:53:22.771Z,61.66
2019-02-28T00:55:55.246Z,61.75
2019-02-28T00:58:28.869Z,61.20
2019-02-28T01:00:59.315Z,61.44
2019-02-28T01:03:32.732Z,58.56
2019-02-28T01:06:09.764Z,57.97
2019-02-28T01:08:39.338Z,57.96
2019-02-28T01:11:13.257Z,56.45
2019-02-28T01:13:46.098Z,55.34
2019-02-28T01:16:19.425Z,57.02
2019-02-28T01:18:59.231Z,55.34
2019-02-28T01:21:30.356Z,56.64
2019-02-28T01:24:01.834Z,56.35
2019-02-28T01:26:34.623Z,56.52
2019-02-28T01:29:05.766Z,57.28
2019-02-28T01:31:37.545Z,56.51
2019-02-28T01:34:10.059Z,56.24
2019-02-28T01:36:42.818Z,56.75
2019-02-28T01:39:15.247Z,57.05
2019-02-28T01:41:47.334Z,59.93
2019-02-28T01:44:19.860Z,61.12
2019-02-28T01:46:51.720Z,61.67
2019-02-28T01:49:25.856Z,61.98
2019-02-28T01:51:58.311Z,63.23
2019-02-28T01:54:31.057Z,64.35
2019-02-28T01:57:03.570Z,63.83
2019-02-28T01:59:36.400Z,64.24
2019-02-28T02:02:09.064Z,62.71
2019-02-28T02:04:40.295Z,63.12
2019-02-28T02:07:11.185Z,62.03
2019-02-28T02:09:42.645Z,60.23
2019-02-28T02:12:15.925Z,58.89
2019-02-28T02:14:46.975Z,60.13
2019-02-28T02:17:19.650Z,58.43
2019-02-28T02:19:52.147Z,58.41
2019-02-28T02:22:24.902Z,60.08
2019-02-28T02:24:55.954Z,58.84
2019-02-28T02:27:28.914Z,58.19
2019-02-28T02:30:00.449Z,57.98
2019-02-28T02:32:37.425Z,57.60
2019-02-28T02:35:08.435Z,57.63
2019-02-28T02:37:41.274Z,58.82
2019-02-28T02:40:14.480Z,60.97
2019-02-28T02:42:48.898Z,62.60
2019-02-28T02:45:20.972Z,62.89
2019-02-28T02:47:52.671Z,63.51
2019-02-28T02:50:23.932Z,60.61
2019-02-28T02:52:56.371Z,61.82
2019-02-28T02:55:29.345Z,62.49
2019-02-28T02:58:01.091Z,64.34
2019-02-28T03:00:33.577Z,64.83
2019-02-28T03:03:07.639Z,63.66
2019-02-28T03:05:39.681Z,65.22
2019-02-28T03:08:10.574Z,63.85
2019-02-28T03:10:42.184Z,63.38
2019-02-28T03:13:14.894Z,62.93
2019-02-28T03:15:47.048Z,63.06
2019-02-28T03:18:20.709Z,64.36
2019-02-28T03:20:52.749Z,66.28
2019-02-28T03:23:25.259Z,63.85
2019-02-28T03:26:05.534Z,62.89
2019-02-28T03:28:32.018Z,63.00
2019-02-28T03:31:14.104Z,61.14
2019-02-28T03:33:40.084Z,59.40
2019-02-28T03:36:15.643Z,60.14
2019-02-28T03:38:49.818Z,60.11
2019-02-28T03:41:21.873Z,60.20
2019-02-28T03:43:54.539Z,60.57
2019-02-28T03:46:26.971Z,59.97
2019-02-28T03:48:59.904Z,61.27
2019-02-28T03:51:33.139Z,59.26
2019-02-28T03:54:05.630Z,59.78
2019-02-28T03:56:36.988Z,60.69
2019-02-28T03:59:08.114Z,59.95
2019-02-28T04:01:44.817Z,60.03
2019-02-28T04:04:12.518Z,59.28
2019-02-28T04:06:43.738Z,59.48
2019-02-28T04:09:14.818Z,59.91
2019-02-28T04:11:45.861Z,59.77
2019-02-28T04:14:16.765Z,60.25
2019-02-28T04:16:52.522Z,61.10
2019-02-28T04:19:22.654Z,62.94
2019-02-28T04:21:52.951Z,62.97
2019-02-28T04:24:23.807Z,62.00
2019-02-28T04:26:54.852Z,62.25
2019-02-28T04:29:29.816Z,62.26
2019-02-28T04:31:58.304Z,61.24
2019-02-28T04:34:29.577Z,61.14
2019-02-28T04:37:00.386Z,61.30
2019-02-28T04:39:31.486Z,61.49
2019-02-28T04:42:05.022Z,62.18
2019-02-28T04:44:35.086Z,62.86
2019-02-28T04:47:06.775Z,63.18
2019-02-28T04:49:38.321Z,63.45
2019-02-28T04:52:11.841Z,64.46
2019-02-28T04:54:41.816Z,63.13
2019-02-28T04:57:14.110Z,63.36
2019-02-28T04:59:45.205Z,63.22
2019-02-28T05:02:19.756Z,64.32
2019-02-28T05:04:49.172Z,65.49
2019-02-28T05:07:20.279Z,65.60
2019-02-28T05:09:51.311Z,66.79
2019-02-28T05:12:22.432Z,66.02
2019-02-28T05:14:55.281Z,65.24
2019-02-28T05:17:26.099Z,64.57
2019-02-28T05:19:57.733Z,64.60
2019-02-28T05:22:29.046Z,67.48
2019-02-28T05:25:00.235Z,66.42
2019-02-28T05:27:34.877Z,66.78
2019-02-28T05:30:04.289Z,66.19
2019-02-28T05:32:35.593Z,67.18
2019-02-28T05:35:07.300Z,66.64
2019-02-28T05:37:38.766Z,66.65
2019-02-28T05:40:10.985Z,68.38
2019-02-28T05:42:42.254Z,67.10
2019-02-28T05:45:15.480Z,65.97
2019-02-28T05:47:47.475Z,66.76
2019-02-28T05:50:19.339Z,66.48
2019-02-28T05:52:50.646Z,66.40
2019-02-28T05:55:25.688Z,66.21
2019-02-28T05:57:54.093Z,66.43
2019-02-28T06:00:25.654Z,66.89
2019-02-28T06:02:58.024Z,66.82
2019-02-28T06:05:29.074Z,67.02
2019-02-28T06:08:00.575Z,67.26
2019-02-28T06:10:32.707Z,67.30
2019-02-28T06:13:03.826Z,66.84
2019-02-28T06:15:37.158Z,66.77
2019-02-28T06:18:07.359Z,67.17
2019-02-28T06:20:38.154Z,67.67
2019-02-28T06:23:09.347Z,67.79
2019-02-28T06:25:40.927Z,67.52
2019-02-28T06:28:12.398Z,67.04
2019-02-28T06:30:43.500Z,67.49
2019-02-28T06:33:15.834Z,67.51
2019-02-28T06:35:49.546Z,68.30
2019-02-28T06:38:19.278Z,68.07
2019-02-28T06:40:51.178Z,67.81
2019-02-28T06:43:22.151Z,67.33
2019-02-28T06:45:53.247Z,67.56
2019-02-28T06:48:26.569Z,67.28
2019-02-28T06:50:56.967Z,68.11
2019-02-28T06:53:30.759Z,67.59
2019-02-28T06:56:02.477Z,67.23
2019-02-28T06:58:33.955Z,67.41
2019-02-28T07:01:05.274Z,67.30
2019-02-28T07:03:38.924Z,67.48
2019-02-28T07:06:08.652Z,67.29
2019-02-28T07:08:41.019Z,67.46
2019-02-28T07:11:12.043Z,66.80
2019-02-28T07:13:43.302Z,67.07
2019-02-28T07:16:14.193Z,66.69
2019-02-28T07:18:45.081Z,66.01
2019-02-28T07:21:15.878Z,66.14
2019-02-28T07:23:46.799Z,65.83
2019-02-28T07:26:19.521Z,65.41
2019-02-28T07:28:51.682Z,65.19
2019-02-28T07:31:24.667Z,65.37
2019-02-28T07:33:55.776Z,65.08
2019-02-28T07:36:26.566Z,65.12
2019-02-28T07:38:57.893Z,64.77
2019-02-28T07:41:29.906Z,65.00
2019-02-28T07:44:00.709Z,64.38
2019-02-28T07:46:31.754Z,64.34
2019-02-28T07:49:02.558Z,64.30
2019-02-28T07:51:33.605Z,64.31
2019-02-28T07:54:05.769Z,64.39
2019-02-28T07:56:42.483Z,64.29
2019-02-28T07:59:09.178Z,63.64
2019-02-28T08:01:40.246Z,63.47
2019-02-28T08:04:18.108Z,63.03
2019-02-28T08:06:45.721Z,63.22
2019-02-28T08:09:26.777Z,63.48
2019-02-28T08:11:57.589Z,62.80
2019-02-28T08:14:28.651Z,62.54
2019-02-28T08:16:59.710Z,62.44
2019-02-28T08:19:30.538Z,62.10
2019-02-28T08:22:01.674Z,62.30
2019-02-28T08:24:35.892Z,62.69
2019-02-28T08:27:05.152Z,62.17
2019-02-28T08:29:35.987Z,62.01
2019-02-28T08:32:08.156Z,62.60
2019-02-28T08:34:39.243Z,62.13
2019-02-28T08:37:11.158Z,62.24
2019-02-28T08:39:42.280Z,61.65
2019-02-28T08:42:13.396Z,61.67
2019-02-28T08:44:44.537Z,60.62
2019-02-28T08:47:17.790Z,61.35
2019-02-28T08:49:48.034Z,60.49
2019-02-28T08:52:19.189Z,61.53
2019-02-28T08:54:50.807Z,61.10
2019-02-28T08:57:25.723Z,60.58
2019-02-28T08:59:56.234Z,60.44
2019-02-28T09:02:27.682Z,60.99
2019-02-28T09:04:58.575Z,61.38
2019-02-28T09:07:29.693Z,61.34
2019-02-28T09:10:00.742Z,61.86
2019-02-28T09:12:33.199Z,61.76
2019-02-28T09:15:04.324Z,61.60
2019-02-28T09:17:37.869Z,61.05
2019-02-28T09:20:10.516Z,61.00
2019-02-28T09:22:41.985Z,60.80
2019-02-28T09:25:14.335Z,61.26
2019-02-28T09:27:45.253Z,61.07
2019-02-28T09:30:29.787Z,60.65
2019-02-28T09:33:00.829Z,60.29
2019-02-28T09:35:32.218Z,60.06
2019-02-28T09:38:06.352Z,59.95
2019-02-28T09:40:36.001Z,60.08
2019-02-28T09:43:06.946Z,60.15
2019-02-28T09:45:39.834Z,60.26
2019-02-28T09:48:10.992Z,59.81
2019-02-28T09:50:42.102Z,59.71
2019-02-28T09:53:15.835Z,59.53
2019-02-28T09:55:45.754Z,59.33
2019-02-28T09:58:16.750Z,58.79
2019-02-28T10:00:50.230Z,58.59
2019-02-28T10:03:20.502Z,57.80
2019-02-28T10:05:51.424Z,57.35
2019-02-28T10:08:22.473Z,58.22
2019-02-28T10:10:55.926Z,58.05
2019-02-28T10:13:26.252Z,58.13
2019-02-28T10:15:57.356Z,57.96
2019-02-28T10:18:28.336Z,57.81
2019-02-28T10:21:01.843Z,57.40
2019-02-28T10:23:32.077Z,58.49
2019-02-28T10:26:03.184Z,57.36
2019-02-28T10:28:34.020Z,57.29
2019-02-28T10:31:04.937Z,56.97
2019-02-28T10:33:35.848Z,56.60
2019-02-28T10:36:09.324Z,55.94
2019-02-28T10:38:39.574Z,54.86
2019-02-28T10:41:11.356Z,54.86
2019-02-28T10:43:42.345Z,54.47
2019-02-28T10:46:16.421Z,54.53
2019-02-28T10:48:50.850Z,53.34
2019-02-28T10:51:19.941Z,52.24
2019-02-28T10:53:51.036Z,51.54
2019-02-28T10:56:22.135Z,51.00
2019-02-28T10:58:53.843Z,50.94
2019-02-28T11:02:00.010Z,51.52
2019-02-28T11:04:42.786Z,50.67
2019-02-28T11:07:10.433Z,50.69
2019-02-28T11:09:41.464Z,50.60
2019-02-28T11:12:19.757Z,50.27
2019-02-28T11:14:46.463Z,49.97
2019-02-28T11:17:17.990Z,50.94
2019-02-28T11:19:51.990Z,50.91
2019-02-28T11:22:22.234Z,51.08
2019-02-28T11:24:53.589Z,50.26
2019-02-28T11:27:24.718Z,50.85
2019-02-28T11:29:55.886Z,51.25
2019-02-28T11:32:29.388Z,51.17
2019-02-28T11:34:59.600Z,51.44
2019-02-28T11:37:30.775Z,51.31
2019-02-28T11:40:01.613Z,50.71
2019-02-28T11:42:33.785Z,50.14
2019-02-28T11:45:05.078Z,50.31
2019-02-28T11:47:36.851Z,50.34
2019-02-28T11:50:08.391Z,49.95
2019-02-28T11:52:39.486Z,49.03
2019-02-28T11:55:11.801Z,49.71
2019-02-28T11:57:43.202Z,49.86
2019-02-28T12:00:16.947Z,50.04
2019-02-28T12:02:53.324Z,49.90
2019-02-28T12:05:20.668Z,49.85
2019-02-28T12:07:52.149Z,49.75
2019-02-28T12:10:23.109Z,50.67
2019-02-28T12:12:56.309Z,49.74
2019-02-28T12:15:27.802Z,49.70
2019-02-28T12:18:03.498Z,49.72
2019-02-28T12:20:31.780Z,49.55
2019-02-28T12:23:02.891Z,49.79
2019-02-28T12:25:33.965Z,49.25
2019-02-28T12:28:06.655Z,49.71
2019-02-28T12:30:37.874Z,48.81
2019-02-28T12:33:08.749Z,48.73
2019-02-28T12:35:40.686Z,48.49
2019-02-28T12:38:11.853Z,47.12
2019-02-28T12:40:45.654Z,47.61
2019-02-28T12:43:15.630Z,46.26
2019-02-28T12:45:47.457Z,46.89
2019-02-28T12:48:18.945Z,47.17
2019-02-28T12:50:50.498Z,46.51
2019-02-28T12:53:25.240Z,45.67
2019-02-28T12:55:54.146Z,45.34
2019-02-28T12:58:25.037Z,43.93
2019-02-28T13:00:56.473Z,43.74
2019-02-28T13:03:28.985Z,43.47
2019-02-28T13:05:59.820Z,43.83
2019-02-28T13:08:31.497Z,43.67
2019-02-28T13:11:04.386Z,43.26
2019-02-28T13:13:34.997Z,43.12
2019-02-28T13:16:06.179Z,43.64
2019-02-28T13:18:39.515Z,42.96
2019-02-28T13:21:10.654Z,43.48
2019-02-28T13:23:43.062Z,42.36
2019-02-28T13:26:13.978Z,42.75
2019-02-28T13:28:45.346Z,43.01
2019-02-28T13:31:16.432Z,42.33
2019-02-28T13:33:48.586Z,42.23
2019-02-28T13:36:21.714Z,42.80
2019-02-28T13:38:54.833Z,42.75
2019-02-28T13:41:26.540Z,43.28
2019-02-28T13:43:59.499Z,42.89
2019-02-28T13:46:37.375Z,43.07
2019-02-28T13:49:12.077Z,43.42
2019-02-28T13:51:42.657Z,43.56
2019-02-28T13:54:13.608Z,43.52
2019-02-28T13:56:44.600Z,44.16
2019-02-28T13:59:15.477Z,45.00
2019-02-28T14:01:46.680Z,44.38
2019-02-28T14:04:18.720Z,44.60
2019-02-28T14:06:52.519Z,44.43
2019-02-28T14:09:23.077Z,44.99
2019-02-28T14:11:54.790Z,44.34
2019-02-28T14:14:25.912Z,44.95
2019-02-28T14:16:58.301Z,44.90
2019-02-28T14:19:30.451Z,44.52
2019-02-28T14:22:01.292Z,45.15
2019-02-28T14:24:32.161Z,45.22
2019-02-28T14:27:03.134Z,45.70
2019-02-28T14:29:34.337Z,45.83
2019-02-28T14:32:07.532Z,46.10
2019-02-28T14:34:38.562Z,46.04
2019-02-28T14:37:09.938Z,46.33
2019-02-28T14:39:42.726Z,46.24
2019-02-28T14:42:13.954Z,46.05
2019-02-28T14:44:45.509Z,46.70
2019-02-28T14:47:16.388Z,46.37
2019-02-28T14:49:47.497Z,46.03
2019-02-28T14:52:18.610Z,46.06
2019-02-28T14:54:49.402Z,46.34
2019-02-28T14:57:20.537Z,46.50
2019-02-28T14:59:52.051Z,46.47
2019-02-28T15:02:27.865Z,46.49
2019-02-28T15:04:56.122Z,46.38
2019-02-28T15:07:27.933Z,46.19
2019-02-28T15:10:01.776Z,46.17
2019-02-28T15:12:32.116Z,46.75
2019-02-28T15:15:03.234Z,46.99
2019-02-28T15:17:34.426Z,46.77
2019-02-28T15:20:05.608Z,46.67
2019-02-28T15:22:36.681Z,46.04
2019-02-28T15:25:08.497Z,46.42
2019-02-28T15:27:39.889Z,47.36
2019-02-28T15:30:13.601Z,47.86
2019-02-28T15:32:44.493Z,47.51
2019-02-28T15:35:16.564Z,46.42
2019-02-28T15:37:48.003Z,46.57
2019-02-28T15:40:26.936Z,46.53
2019-02-28T15:42:58.965Z,46.83
2019-02-28T15:45:30.109Z,47.38
2019-02-28T15:48:01.223Z,47.79
2019-02-28T15:50:32.328Z,47.88
2019-02-28T15:53:03.529Z,47.86
2019-02-28T15:55:35.494Z,47.44
2019-02-28T15:58:07.625Z,47.31
2019-02-28T16:00:39.129Z,47.76
2019-02-28T16:03:09.933Z,48.09
2019-02-28T16:05:44.053Z,48.32
2019-02-28T16:08:13.718Z,47.95
2019-02-28T16:10:52.834Z,46.46
2019-02-28T16:13:17.737Z,45.69
2019-02-28T16:15:50.199Z,46.14
2019-02-28T16:18:21.467Z,46.70
2019-02-28T16:20:52.330Z,47.63
2019-02-28T16:23:27.175Z,48.08
2019-02-28T16:25:56.773Z,48.22
2019-02-28T16:28:27.652Z,48.69
2019-02-28T16:30:58.537Z,50.04
2019-02-28T16:33:29.334Z,50.04
2019-02-28T16:36:00.234Z,52.30
2019-02-28T16:38:32.711Z,52.30
2019-02-28T16:41:03.927Z,53.40
2019-02-28T16:43:35.390Z,54.77
2019-02-28T16:46:06.841Z,55.46
2019-02-28T16:48:37.666Z,56.26
2019-02-28T16:51:09.034Z,56.77
2019-02-28T16:53:40.180Z,57.27
2019-02-28T16:56:11.078Z,57.47
2019-02-28T16:58:42.202Z,57.93
2019-02-28T17:01:13.311Z,58.26
2019-02-28T17:03:44.687Z,58.78
2019-02-28T17:06:15.746Z,59.25
2019-02-28T17:09:08.641Z,59.95
2019-02-28T17:11:44.674Z,60.35
2019-02-28T17:14:17.700Z,60.78
2019-02-28T17:17:02.581Z,61.05
2019-02-28T17:19:33.647Z,61.48
2019-02-28T17:22:05.513Z,61.73
2019-02-28T17:24:36.322Z,61.67
2019-02-28T17:27:20.950Z,62.21
2019-02-28T17:30:00.450Z,62.02
2019-02-28T17:32:32.436Z,62.22
2019-02-28T17:35:03.403Z,62.41
2019-02-28T17:37:34.770Z,62.75
2019-02-28T17:40:06.514Z,62.89
2019-02-28T17:42:38.619Z,63.02
2019-02-28T17:45:30.482Z,63.04
2019-02-28T17:48:48.730Z,63.04
2019-02-28T17:51:36.554Z,62.46
2019-02-28T17:54:57.354Z,62.85
2019-02-28T17:57:57.814Z,62.77
2019-02-28T18:01:00.890Z,62.90
2019-02-28T18:04:24.118Z,62.86
2019-02-28T18:07:23.671Z,62.69
2019-02-28T18:10:45.867Z,62.89
2019-02-28T18:13:45.865Z,63.16
2019-02-28T18:16:30.379Z,63.01
2019-02-28T18:19:19.065Z,64.06
2019-02-28T18:22:42.325Z,64.30
2019-02-28T18:26:12.806Z,64.79
2019-02-28T18:29:25.052Z,64.93
2019-02-28T18:31:57.054Z,64.63
2019-02-28T18:34:30.832Z,64.32
2019-02-28T18:37:01.718Z,63.96
2019-02-28T18:39:33.221Z,64.19
2019-02-28T18:42:04.185Z,64.07
2019-02-28T18:44:37.478Z,64.13
2019-02-28T18:47:08.172Z,64.05
2019-02-28T18:49:39.056Z,64.23
2019-02-28T18:52:10.247Z,64.21
2019-02-28T18:54:41.289Z,64.24
2019-02-28T18:57:12.324Z,64.20
2019-02-28T18:59:43.377Z,64.90
2019-02-28T19:02:14.262Z,64.32
2019-02-28T19:04:45.504Z,64.33
2019-02-28T19:07:16.532Z,64.56
2019-02-28T19:09:47.347Z,64.91
2019-02-28T19:12:18.228Z,65.15
2019-02-28T19:14:49.391Z,65.10
2019-02-28T19:17:20.441Z,65.35
2019-02-28T19:19:52.231Z,65.39
2019-02-28T19:22:23.443Z,65.05
2019-02-28T19:24:54.492Z,65.23
2019-02-28T19:27:25.872Z,64.88
2019-02-28T19:29:56.755Z,65.44
2019-02-28T19:32:27.786Z,65.43
2019-02-28T19:35:00.287Z,65.99
2019-02-28T19:37:31.625Z,66.37
2019-02-28T19:40:02.658Z,66.54
2019-02-28T19:42:35.481Z,66.75
2019-02-28T19:45:09.049Z,66.65
2019-02-28T19:47:39.941Z,66.97
2019-02-28T19:50:11.469Z,67.04
2019-02-28T19:52:42.922Z,67.67
2019-02-28T19:55:13.916Z,67.39
2019-02-28T19:57:44.712Z,67.30
2019-02-28T20:00:16.480Z,66.77
2019-02-28T20:02:47.357Z,67.04
2019-02-28T20:05:18.958Z,67.02
2019-02-28T20:10:14.666Z,66.63
2019-02-28T20:12:45.917Z,66.51
2019-02-28T20:15:18.041Z,66.26
2019-02-28T20:17:49.166Z,66.66
2019-02-28T20:20:20.300Z,66.36
2019-02-28T20:22:51.464Z,66.80
2019-02-28T20:25:23.921Z,67.04
2019-02-28T20:27:55.101Z,67.23
2019-02-28T20:30:26.690Z,67.06
2019-02-28T20:32:57.633Z,67.43
2019-02-28T20:35:29.068Z,67.66
2019-02-28T20:38:00.234Z,67.69
2019-02-28T20:40:31.153Z,67.93
2019-02-28T20:43:02.454Z,67.34
2019-02-28T20:45:33.665Z,67.93
2019-02-28T20:48:04.680Z,68.12
2019-02-28T20:50:37.735Z,68.48
2019-02-28T20:53:10.681Z,68.64
2019-02-28T20:55:42.145Z,68.67
2019-02-28T20:58:13.390Z,68.61
2019-02-28T21:00:44.629Z,68.72
2019-02-28T21:03:15.671Z,68.83
2019-02-28T21:05:46.912Z,68.83
2019-02-28T21:08:18.289Z,68.92
2019-02-28T21:10:49.431Z,68.92
2019-02-28T21:13:20.901Z,69.55
2019-02-28T21:15:51.811Z,69.30
2019-02-28T21:18:23.147Z,69.29
2019-02-28T21:20:54.295Z,69.29
2019-02-28T21:23:25.159Z,69.54
2019-02-28T21:25:57.357Z,69.43
2019-02-28T21:28:28.275Z,69.23
2019-02-28T21:30:59.317Z,68.92
2019-02-28T21:33:30.353Z,69.07
2019-02-28T21:36:01.699Z,69.44
2019-02-28T21:38:33.541Z,69.66
2019-02-28T21:41:04.561Z,69.88
2019-02-28T21:43:35.422Z,69.86
2019-02-28T21:46:06.374Z,70.18
2019-02-28T21:48:37.393Z,70.49
2019-02-28T21:51:09.354Z,69.85
2019-02-28T21:53:40.225Z,70.56
2019-02-28T21:56:11.115Z,70.94
2019-02-28T21:58:42.246Z,71.19
2019-02-28T22:01:13.367Z,71.13
2019-02-28T22:03:44.468Z,70.88
2019-02-28T22:06:15.531Z,71.47
2019-02-28T22:08:46.548Z,71.49
2019-02-28T22:11:17.901Z,71.79
2019-02-28T22:13:48.698Z,71.58
2019-02-28T22:16:19.586Z,71.35
2019-02-28T22:18:50.391Z,71.44
2019-02-28T22:21:21.541Z,71.20
2019-02-28T22:23:52.633Z,71.13
2019-02-28T22:26:23.568Z,71.14
2019-02-28T22:28:54.373Z,71.65
2019-02-28T22:31:45.258Z,71.70
2019-02-28T22:34:36.599Z,71.60
2019-02-28T22:37:07.479Z,71.50
2019-02-28T22:39:38.271Z,71.65
2019-02-28T22:42:09.161Z,71.59
2019-02-28T22:44:40.282Z,71.87
2019-02-28T22:47:11.257Z,71.84
2019-02-28T22:49:42.549Z,72.18
2019-02-28T22:52:13.457Z,72.28
2019-02-28T22:54:44.249Z,72.65
2019-02-28T22:57:15.304Z,72.99
2019-02-28T22:59:46.101Z,73.12
2019-02-28T23:02:17.559Z,73.63
2019-02-28T23:04:48.908Z,74.23
2019-02-28T23:07:20.354Z,76.83
2019-02-28T23:09:51.376Z,79.61
2019-02-28T23:12:22.533Z,81.85
2019-02-28T23:14:53.323Z,83.95
2019-02-28T23:17:24.203Z,87.28
2019-02-28T23:19:55.294Z,89.20
2019-02-28T23:22:26.428Z,89.87
2019-02-28T23:24:57.215Z,89.50
2019-02-28T23:27:28.245Z,90.48
2019-02-28T23:30:31.248Z,89.75
2019-02-28T23:33:05.622Z,90.91
2019-02-28T23:35:40.766Z,91.24
2019-02-28T23:38:11.783Z,90.44
2019-02-28T23:40:42.642Z,91.18
2019-02-28T23:43:14.068Z,91.26
2019-02-28T23:45:44.936Z,90.77
2019-02-28T23:48:16.031Z,91.14
2019-02-28T23:50:46.841Z,91.41
2019-02-28T23:53:17.866Z,91.43
2019-02-28T23:55:48.982Z,90.99
2019-02-28T23:58:19.849Z,92.28
